createdAt,value
2022-10-22T00:01:41.231Z,72.35
2022-10-22T00:04:14.621Z,72.44
2022-10-22T00:06:48.059Z,72.43
2022-10-22T00:09:21.505Z,72.43
2022-10-22T00:11:55.245Z,72.61
2022-10-22T00:14:28.615Z,72.64
2022-10-22T00:17:02.375Z,72.70
2022-10-22T00:19:35.739Z,72.66
2022-10-22T00:22:10.438Z,72.62
2022-10-22T00:24:44.354Z,72.47
2022-10-22T00:27:17.909Z,72.65
2022-10-22T00:29:51.413Z,72.71
2022-10-22T00:32:25.362Z,72.63
2022-10-22T00:34:58.622Z,72.73
2022-10-22T00:37:32.217Z,72.78
2022-10-22T00:40:05.582Z,72.99
2022-10-22T00:42:39.193Z,73.03
2022-10-22T00:45:20.365Z,73.04
2022-10-22T00:48:00.760Z,73.05
2022-10-22T00:50:39.031Z,73.19
2022-10-22T00:53:15.718Z,73.22
2022-10-22T00:55:53.034Z,73.38
2022-10-22T00:58:29.343Z,73.81
2022-10-22T01:01:03.669Z,74.07
2022-10-22T01:03:37.333Z,74.22
2022-10-22T01:06:14.170Z,74.31
2022-10-22T01:09:03.784Z,74.39
2022-10-22T01:11:45.557Z,74.49
2022-10-22T01:14:27.086Z,74.59
2022-10-22T01:17:09.760Z,74.75
2022-10-22T01:20:06.631Z,74.81
2022-10-22T01:22:47.075Z,74.80
2022-10-22T01:25:29.977Z,74.84
2022-10-22T01:28:15.741Z,74.86
2022-10-22T01:30:52.084Z,74.99
2022-10-22T01:33:29.133Z,74.93
2022-10-22T01:36:03.745Z,75.03
2022-10-22T01:38:37.809Z,75.08
2022-10-22T01:41:11.824Z,75.00
2022-10-22T01:43:45.239Z,75.06
2022-10-22T01:46:28.533Z,75.15
2022-10-22T01:49:16.649Z,75.27
2022-10-22T01:52:04.831Z,75.46
2022-10-22T01:54:48.297Z,75.64
2022-10-22T01:57:30.387Z,75.62
2022-10-22T02:00:08.303Z,75.77
2022-10-22T02:02:49.664Z,75.78
2022-10-22T02:05:27.101Z,76.02
2022-10-22T02:08:04.804Z,76.14
2022-10-22T02:10:41.567Z,76.14
2022-10-22T02:13:19.124Z,76.09
2022-10-22T02:15:54.657Z,76.26
2022-10-22T02:18:31.418Z,76.22
2022-10-22T02:21:04.901Z,76.25
2022-10-22T02:23:39.020Z,76.42
2022-10-22T02:26:18.646Z,76.53
2022-10-22T02:28:59.080Z,76.56
2022-10-22T02:31:37.685Z,76.56
2022-10-22T02:34:15.639Z,76.67
2022-10-22T02:36:50.974Z,76.76
2022-10-22T02:39:25.102Z,76.89
2022-10-22T02:41:58.476Z,76.73
2022-10-22T02:44:32.039Z,76.77
2022-10-22T02:47:05.292Z,76.80
2022-10-22T02:49:38.204Z,76.84
2022-10-22T02:52:12.127Z,76.91
2022-10-22T02:54:45.618Z,76.86
2022-10-22T02:57:18.933Z,77.07
2022-10-22T02:59:52.329Z,77.20
2022-10-22T03:02:25.821Z,77.41
2022-10-22T03:04:59.317Z,77.41
2022-10-22T03:07:32.767Z,77.45
2022-10-22T03:10:06.083Z,77.31
2022-10-22T03:12:39.406Z,77.48
2022-10-22T03:15:13.837Z,77.70
2022-10-22T03:17:47.637Z,77.50
2022-10-22T03:20:21.213Z,77.50
2022-10-22T03:22:54.822Z,77.55
2022-10-22T03:25:31.412Z,77.72
2022-10-22T03:28:07.484Z,77.72
2022-10-22T03:30:40.596Z,77.81
2022-10-22T03:33:13.761Z,77.73
2022-10-22T03:35:49.254Z,77.62
2022-10-22T03:38:22.768Z,77.58
2022-10-22T03:40:56.111Z,77.78
2022-10-22T03:43:29.421Z,77.93
2022-10-22T03:46:02.533Z,78.04
2022-10-22T03:48:36.286Z,78.21
2022-10-22T03:51:10.316Z,78.66
2022-10-22T03:53:44.197Z,78.74
2022-10-22T03:56:17.559Z,78.89
2022-10-22T03:58:51.002Z,79.00
2022-10-22T04:01:24.332Z,78.93
2022-10-22T04:03:57.963Z,79.09
2022-10-22T04:06:33.202Z,79.29
2022-10-22T04:09:06.668Z,79.50
2022-10-22T04:11:40.363Z,79.52
2022-10-22T04:14:14.356Z,79.56
2022-10-22T04:16:47.959Z,79.61
2022-10-22T04:19:21.169Z,79.76
2022-10-22T04:21:54.935Z,79.89
2022-10-22T04:24:28.517Z,79.82
2022-10-22T04:27:01.534Z,79.94
2022-10-22T04:29:35.163Z,80.02
2022-10-22T04:32:08.842Z,80.09
2022-10-22T04:34:41.941Z,80.16
2022-10-22T04:37:15.388Z,80.18
2022-10-22T04:39:48.937Z,80.08
2022-10-22T04:42:22.257Z,80.16
2022-10-22T04:44:56.423Z,80.12
2022-10-22T04:47:30.170Z,80.14
2022-10-22T04:50:03.401Z,80.13
2022-10-22T04:52:36.772Z,80.32
2022-10-22T04:55:11.157Z,80.31
2022-10-22T04:57:44.572Z,80.09
2022-10-22T05:00:18.832Z,80.31
2022-10-22T05:02:54.125Z,80.45
2022-10-22T05:05:27.403Z,80.49
2022-10-22T05:08:01.427Z,80.54
2022-10-22T05:10:34.598Z,80.63
2022-10-22T05:13:07.481Z,80.49
2022-10-22T05:15:40.748Z,80.52
2022-10-22T05:18:17.822Z,80.36
2022-10-22T05:20:53.566Z,80.26
2022-10-22T05:23:26.480Z,80.22
2022-10-22T05:26:03.168Z,80.22
2022-10-22T05:28:37.108Z,80.23
2022-10-22T05:31:13.267Z,80.27
2022-10-22T05:33:48.250Z,80.22
2022-10-22T05:36:23.782Z,79.93
2022-10-22T05:38:58.996Z,79.84
2022-10-22T05:41:34.474Z,79.88
2022-10-22T05:44:08.773Z,80.13
2022-10-22T05:46:43.608Z,80.24
2022-10-22T05:49:17.984Z,80.11
2022-10-22T05:51:50.959Z,79.92
2022-10-22T05:54:24.483Z,79.82
2022-10-22T05:56:57.665Z,79.58
2022-10-22T05:59:30.914Z,79.45
2022-10-22T06:02:04.396Z,79.40
2022-10-22T06:04:38.084Z,79.17
2022-10-22T06:07:16.762Z,79.11
2022-10-22T06:09:50.703Z,78.90
2022-10-22T06:12:24.170Z,78.92
2022-10-22T06:14:57.813Z,78.79
2022-10-22T06:17:31.328Z,78.83
2022-10-22T06:22:39.806Z,78.67
2022-10-22T06:25:14.595Z,78.68
2022-10-22T06:27:53.560Z,78.49
2022-10-22T06:30:27.132Z,78.47
2022-10-22T06:33:00.569Z,78.29
2022-10-22T06:35:34.016Z,78.20
2022-10-22T06:38:07.741Z,78.07
2022-10-22T06:40:43.781Z,77.88
2022-10-22T06:43:18.357Z,77.96
2022-10-22T06:45:51.545Z,78.13
2022-10-22T06:48:25.146Z,78.10
2022-10-22T06:50:58.309Z,77.74
2022-10-22T06:53:32.201Z,77.69
2022-10-22T06:56:11.188Z,77.50
2022-10-22T06:58:45.461Z,77.45
2022-10-22T07:01:20.722Z,77.25
2022-10-22T07:03:55.700Z,77.29
2022-10-22T07:06:31.300Z,77.19
2022-10-22T07:09:04.857Z,77.00
2022-10-22T07:11:43.751Z,76.84
2022-10-22T07:14:17.778Z,76.99
2022-10-22T07:16:51.556Z,77.11
2022-10-22T07:19:25.559Z,77.08
2022-10-22T07:21:59.771Z,77.05
2022-10-22T07:24:34.032Z,77.12
2022-10-22T07:27:10.879Z,77.49
2022-10-22T07:29:45.337Z,77.63
2022-10-22T07:32:22.851Z,77.80
2022-10-22T07:34:58.036Z,77.89
2022-10-22T07:37:31.743Z,77.92
2022-10-22T07:40:05.922Z,77.99
2022-10-22T07:42:39.142Z,77.91
2022-10-22T07:45:14.153Z,78.03
2022-10-22T07:47:48.733Z,78.03
2022-10-22T07:50:25.209Z,78.00
2022-10-22T07:52:58.766Z,77.84
2022-10-22T07:55:33.022Z,77.69
2022-10-22T07:58:08.225Z,77.62
2022-10-22T08:00:41.928Z,77.57
2022-10-22T08:03:17.357Z,77.32
2022-10-22T08:05:53.309Z,77.55
2022-10-22T08:08:29.802Z,77.65
2022-10-22T08:11:05.211Z,77.28
2022-10-22T08:13:44.130Z,77.18
2022-10-22T08:16:19.260Z,77.02
2022-10-22T08:18:54.335Z,77.08
2022-10-22T08:21:29.072Z,76.94
2022-10-22T08:24:02.757Z,76.79
2022-10-22T08:26:36.323Z,76.68
2022-10-22T08:29:10.295Z,76.73
2022-10-22T08:31:44.511Z,76.59
2022-10-22T08:34:17.973Z,76.62
2022-10-22T08:36:54.512Z,76.58
2022-10-22T08:39:28.404Z,76.52
2022-10-22T08:42:16.871Z,76.75
2022-10-22T08:44:54.824Z,76.75
2022-10-22T08:47:50.744Z,76.86
2022-10-22T08:50:32.776Z,77.32
2022-10-22T08:53:08.632Z,77.21
2022-10-22T08:55:43.914Z,76.99
2022-10-22T08:58:28.474Z,76.78
2022-10-22T09:01:04.436Z,76.62
2022-10-22T09:03:47.409Z,76.69
2022-10-22T09:06:25.301Z,76.69
2022-10-22T09:09:01.576Z,76.72
2022-10-22T09:11:40.490Z,76.69
2022-10-22T09:17:17.923Z,76.58
2022-10-22T09:19:56.966Z,76.65
2022-10-22T09:22:41.548Z,76.75
2022-10-22T09:25:23.939Z,76.80
2022-10-22T09:28:03.082Z,76.91
2022-10-22T09:30:40.316Z,76.76
2022-10-22T09:33:21.491Z,76.76
2022-10-22T09:36:04.007Z,76.51
2022-10-22T09:38:44.693Z,76.25
2022-10-22T09:41:20.309Z,76.45
2022-10-22T09:43:54.506Z,76.39
2022-10-22T09:46:31.861Z,76.22
2022-10-22T09:49:11.987Z,75.93
2022-10-22T09:52:03.335Z,75.78
2022-10-22T09:54:44.616Z,75.12
2022-10-22T09:57:23.254Z,74.85
2022-10-22T09:59:59.063Z,74.20
2022-10-22T10:02:38.720Z,74.17
2022-10-22T10:05:26.721Z,74.08
2022-10-22T10:08:02.159Z,74.58
2022-10-22T10:10:48.411Z,74.61
2022-10-22T10:13:41.356Z,74.65
2022-10-22T10:16:28.810Z,74.51
2022-10-22T10:19:16.373Z,74.32
2022-10-22T10:21:57.663Z,73.75
2022-10-22T10:24:42.771Z,73.64
2022-10-22T10:27:22.614Z,73.72
2022-10-22T10:30:03.610Z,73.58
2022-10-22T10:32:56.792Z,73.62
2022-10-22T10:35:38.974Z,73.70
2022-10-22T10:38:32.061Z,73.75
2022-10-22T10:41:17.997Z,73.91
2022-10-22T10:44:12.704Z,73.92
2022-10-22T10:46:55.943Z,74.10
2022-10-22T10:49:33.002Z,74.21
2022-10-22T10:52:18.902Z,74.38
2022-10-22T10:55:01.638Z,74.46
2022-10-22T10:57:45.825Z,74.72
2022-10-22T11:00:21.490Z,74.80
2022-10-22T11:03:42.905Z,74.98
2022-10-22T11:06:23.157Z,75.03
2022-10-22T11:09:03.614Z,75.22
2022-10-22T11:11:42.877Z,75.16
2022-10-22T11:14:24.239Z,75.27
2022-10-22T11:17:06.706Z,75.29
2022-10-22T11:19:53.777Z,75.32
2022-10-22T11:22:33.840Z,75.26
2022-10-22T11:25:17.576Z,75.32
2022-10-22T11:27:56.656Z,75.44
2022-10-22T11:30:36.856Z,75.34
2022-10-22T11:33:16.616Z,75.35
2022-10-22T11:35:51.716Z,75.45
2022-10-22T11:38:28.479Z,75.11
2022-10-22T11:41:07.090Z,75.11
2022-10-22T11:43:58.340Z,75.58
2022-10-22T11:46:45.999Z,75.66
2022-10-22T11:49:28.298Z,75.52
2022-10-22T11:52:26.213Z,75.39
2022-10-22T11:55:03.350Z,75.47
2022-10-22T11:57:44.442Z,75.41
2022-10-22T12:00:41.673Z,75.24
2022-10-22T12:03:25.740Z,75.05
2022-10-22T12:06:22.357Z,75.05
2022-10-22T12:09:03.898Z,75.09
2022-10-22T12:11:42.924Z,74.88
2022-10-22T12:14:27.041Z,75.06
2022-10-22T12:17:07.167Z,74.83
2022-10-22T12:19:44.414Z,74.39
2022-10-22T12:22:23.092Z,74.18
2022-10-22T12:24:58.845Z,74.16
2022-10-22T12:27:39.156Z,74.32
2022-10-22T12:30:24.223Z,74.23
2022-10-22T12:33:00.704Z,74.56
2022-10-22T12:35:37.287Z,74.57
2022-10-22T12:38:17.818Z,74.47
2022-10-22T12:40:55.131Z,74.53
2022-10-22T12:43:30.930Z,74.43
2022-10-22T12:46:05.424Z,74.13
2022-10-22T12:48:43.771Z,74.14
2022-10-22T12:51:21.793Z,74.17
2022-10-22T12:53:57.421Z,74.34
2022-10-22T12:56:34.848Z,74.26
2022-10-22T12:59:17.091Z,74.31
2022-10-22T13:01:53.158Z,74.46
2022-10-22T13:04:36.576Z,74.58
2022-10-22T13:07:22.689Z,74.54
2022-10-22T13:10:03.354Z,74.62
2022-10-22T13:12:40.513Z,74.66
2022-10-22T13:15:35.212Z,74.65
2022-10-22T13:18:20.225Z,75.01
2022-10-22T13:21:02.261Z,75.19
2022-10-22T13:23:36.952Z,75.32
2022-10-22T13:26:18.733Z,75.41
2022-10-22T13:28:57.006Z,75.35
2022-10-22T13:31:34.078Z,75.48
2022-10-22T13:34:17.423Z,75.57
2022-10-22T13:36:52.418Z,75.87
2022-10-22T13:39:26.708Z,75.81
2022-10-22T13:42:03.373Z,75.84
2022-10-22T13:44:43.961Z,75.86
2022-10-22T13:47:27.999Z,75.99
2022-10-22T13:50:03.857Z,75.93
2022-10-22T13:52:45.935Z,75.84
2022-10-22T13:55:25.896Z,76.04
2022-10-22T13:58:03.463Z,76.00
2022-10-22T14:00:39.444Z,76.14
2022-10-22T14:03:17.987Z,76.11
2022-10-22T14:05:51.660Z,76.07
2022-10-22T14:08:27.037Z,75.93
2022-10-22T14:11:00.919Z,76.04
2022-10-22T14:13:34.521Z,75.75
2022-10-22T14:16:09.720Z,75.89
2022-10-22T14:18:43.097Z,75.84
2022-10-22T14:21:17.577Z,75.90
2022-10-22T14:23:52.129Z,75.94
2022-10-22T14:26:28.507Z,76.00
2022-10-22T14:29:09.444Z,76.08
2022-10-22T14:31:45.792Z,75.92
2022-10-22T14:34:19.603Z,75.91
2022-10-22T14:36:54.178Z,75.88
2022-10-22T14:39:28.382Z,75.96
2022-10-22T14:42:01.925Z,75.91
2022-10-22T14:44:36.662Z,75.78
2022-10-22T14:47:10.317Z,75.79
2022-10-22T14:49:44.183Z,75.78
2022-10-22T14:52:18.244Z,75.84
2022-10-22T14:54:51.778Z,75.89
2022-10-22T14:57:25.583Z,75.93
2022-10-22T14:59:59.056Z,76.08
2022-10-22T15:02:32.242Z,76.10
2022-10-22T15:05:05.804Z,76.19
2022-10-22T15:07:40.741Z,76.13
2022-10-22T15:10:14.605Z,76.06
2022-10-22T15:12:48.375Z,76.15
2022-10-22T15:15:23.224Z,76.16
2022-10-22T15:17:59.040Z,76.32
2022-10-22T15:20:32.701Z,76.17
2022-10-22T15:23:05.963Z,76.31
2022-10-22T15:25:39.522Z,76.31
2022-10-22T15:28:13.239Z,76.39
2022-10-22T15:30:47.126Z,76.44
2022-10-22T15:33:20.886Z,76.55
2022-10-22T15:35:54.789Z,76.56
2022-10-22T15:41:10.629Z,76.65
2022-10-22T15:43:44.316Z,76.74
2022-10-22T15:46:19.538Z,76.73
2022-10-22T15:48:54.563Z,76.83
2022-10-22T15:51:28.509Z,76.89
2022-10-22T15:54:04.403Z,76.95
2022-10-22T15:56:40.580Z,76.95
2022-10-22T15:59:17.496Z,76.88
2022-10-22T16:01:51.691Z,77.16
2022-10-22T16:04:25.693Z,77.21
2022-10-22T16:06:59.612Z,77.19
2022-10-22T16:09:33.200Z,77.16
2022-10-22T16:12:07.037Z,77.08
2022-10-22T16:14:40.127Z,77.18
2022-10-22T16:17:13.506Z,77.17
2022-10-22T16:19:47.161Z,77.29
2022-10-22T16:22:21.725Z,77.41
2022-10-22T16:24:55.105Z,77.67
2022-10-22T16:27:28.920Z,77.76
2022-10-22T16:30:02.298Z,77.73
2022-10-22T16:32:36.296Z,78.00
2022-10-22T16:35:11.681Z,78.21
2022-10-22T16:37:45.500Z,78.36
2022-10-22T16:40:18.950Z,78.37
2022-10-22T16:42:52.784Z,78.30
2022-10-22T16:45:26.706Z,78.28
2022-10-22T16:48:01.421Z,78.49
2022-10-22T16:50:35.591Z,78.40
2022-10-22T16:53:09.045Z,78.59
2022-10-22T16:55:44.630Z,78.76
2022-10-22T16:58:18.819Z,78.76
2022-10-22T17:00:56.517Z,78.87
2022-10-22T17:03:30.579Z,78.71
2022-10-22T17:06:05.248Z,78.69
2022-10-22T17:08:40.668Z,78.87
2022-10-22T17:11:18.081Z,78.93
2022-10-22T17:13:54.504Z,78.84
2022-10-22T17:16:29.857Z,78.86
2022-10-22T17:19:07.217Z,78.74
2022-10-22T17:21:41.459Z,78.90
2022-10-22T17:24:16.456Z,78.88
2022-10-22T17:26:51.802Z,78.85
2022-10-22T17:29:26.347Z,78.88
2022-10-22T17:32:00.304Z,78.93
2022-10-22T17:34:35.673Z,79.36
2022-10-22T17:37:10.560Z,79.04
2022-10-22T17:39:44.461Z,79.36
2022-10-22T17:42:19.178Z,79.84
2022-10-22T17:44:53.495Z,79.94
2022-10-22T17:47:27.622Z,79.89
2022-10-22T17:50:01.781Z,79.47
2022-10-22T17:52:37.206Z,79.18
2022-10-22T17:55:14.223Z,79.22
2022-10-22T17:57:48.929Z,79.31
2022-10-22T18:00:24.347Z,79.24
2022-10-22T18:02:58.345Z,79.27
2022-10-22T18:05:32.702Z,79.16
2022-10-22T18:08:07.804Z,79.35
2022-10-22T18:10:45.055Z,79.15
2022-10-22T18:13:19.741Z,79.10
2022-10-22T18:15:59.340Z,79.67
2022-10-22T18:18:34.187Z,79.82
2022-10-22T18:21:09.219Z,79.88
2022-10-22T18:23:44.738Z,80.03
2022-10-22T18:26:21.570Z,80.01
2022-10-22T18:28:59.449Z,80.07
2022-10-22T18:31:37.144Z,79.63
2022-10-22T18:34:13.261Z,79.28
2022-10-22T18:36:47.053Z,79.10
2022-10-22T18:39:22.536Z,79.15
2022-10-22T18:41:56.272Z,79.17
2022-10-22T18:44:32.867Z,79.36
2022-10-22T18:47:09.897Z,79.38
2022-10-22T18:49:44.707Z,79.37
2022-10-22T18:52:22.345Z,79.50
2022-10-22T18:55:14.695Z,79.83
2022-10-22T18:57:50.738Z,80.54
2022-10-22T19:00:27.308Z,80.63
2022-10-22T19:03:02.222Z,80.76
2022-10-22T19:05:36.555Z,80.73
2022-10-22T19:08:12.517Z,80.85
2022-10-22T19:10:47.212Z,80.97
2022-10-22T19:13:23.617Z,80.99
2022-10-22T19:16:04.109Z,81.12
2022-10-22T19:18:39.566Z,81.10
2022-10-22T19:21:15.040Z,81.24
2022-10-22T19:23:50.539Z,81.34
2022-10-22T19:26:27.303Z,81.30
2022-10-22T19:29:02.019Z,81.32
2022-10-22T19:31:36.582Z,81.60
2022-10-22T19:34:11.909Z,81.63
2022-10-22T19:36:45.599Z,81.62
2022-10-22T19:39:20.970Z,81.62
2022-10-22T19:41:55.815Z,81.69
2022-10-22T19:44:29.900Z,81.78
2022-10-22T19:47:04.782Z,81.84
2022-10-22T19:49:38.867Z,82.04
2022-10-22T19:52:13.058Z,81.86
2022-10-22T19:54:47.056Z,81.93
2022-10-22T19:57:21.787Z,81.81
2022-10-22T19:59:57.461Z,81.89
2022-10-22T20:02:31.736Z,82.07
2022-10-22T20:05:05.779Z,82.12
2022-10-22T20:07:39.683Z,82.15
2022-10-22T20:10:14.145Z,82.09
2022-10-22T20:12:48.757Z,82.08
2022-10-22T20:15:23.352Z,82.20
2022-10-22T20:17:56.982Z,82.12
2022-10-22T20:20:31.147Z,82.19
2022-10-22T20:23:06.188Z,82.24
2022-10-22T20:25:45.101Z,82.23
2022-10-22T20:28:19.281Z,82.37
2022-10-22T20:30:52.671Z,82.55
2022-10-22T20:33:26.636Z,82.61
2022-10-22T20:36:03.837Z,82.60
2022-10-22T20:38:38.009Z,82.55
2022-10-22T20:41:15.851Z,82.56
2022-10-22T20:43:50.869Z,82.46
2022-10-22T20:46:27.547Z,82.61
2022-10-22T20:49:03.209Z,82.55
2022-10-22T20:51:39.348Z,82.65
2022-10-22T20:54:15.750Z,82.75
2022-10-22T20:56:49.957Z,82.67
2022-10-22T20:59:23.507Z,82.64
2022-10-22T21:01:57.291Z,82.68
2022-10-22T21:04:31.772Z,82.80
2022-10-22T21:07:05.273Z,82.70
2022-10-22T21:09:38.435Z,82.73
2022-10-22T21:12:12.689Z,82.69
2022-10-22T21:14:47.992Z,82.75
2022-10-22T21:17:21.507Z,82.73
2022-10-22T21:19:54.797Z,82.80
2022-10-22T21:22:28.264Z,82.96
2022-10-22T21:25:01.569Z,82.90
2022-10-22T21:27:35.250Z,82.89
2022-10-22T21:30:10.157Z,82.93
2022-10-22T21:32:43.778Z,82.89
2022-10-22T21:35:17.592Z,82.94
2022-10-22T21:37:51.021Z,82.97
2022-10-22T21:40:24.556Z,83.03
2022-10-22T21:42:58.546Z,83.02
2022-10-22T21:45:32.140Z,83.05
2022-10-22T21:48:05.341Z,83.06
2022-10-22T21:50:42.386Z,83.12
2022-10-22T21:53:15.589Z,83.06
2022-10-22T21:55:48.944Z,83.01
2022-10-22T21:58:22.467Z,83.09
2022-10-22T22:00:59.283Z,83.13
2022-10-22T22:03:32.789Z,83.20
2022-10-22T22:06:08.425Z,83.23
2022-10-22T22:08:41.955Z,83.20
2022-10-22T22:11:17.215Z,83.23
2022-10-22T22:13:50.809Z,83.22
2022-10-22T22:16:28.328Z,83.19
2022-10-22T22:21:39.538Z,83.21
2022-10-22T22:24:15.102Z,83.23
2022-10-22T22:26:49.501Z,83.15
2022-10-22T22:29:22.907Z,83.21
2022-10-22T22:31:56.216Z,83.19
2022-10-22T22:34:30.251Z,83.16
2022-10-22T22:37:03.693Z,83.22
2022-10-22T22:39:37.023Z,83.14
2022-10-22T22:42:10.350Z,83.14
2022-10-22T22:44:43.746Z,83.13
2022-10-22T22:47:17.341Z,83.09
2022-10-22T22:49:50.843Z,83.17
2022-10-22T22:52:24.175Z,83.16
2022-10-22T22:54:57.218Z,83.13
2022-10-22T22:57:30.823Z,83.11
2022-10-22T23:00:04.136Z,83.19
2022-10-22T23:02:37.385Z,83.16
2022-10-22T23:05:11.941Z,83.24
2022-10-22T23:07:45.048Z,83.26
2022-10-22T23:10:18.683Z,83.17
2022-10-22T23:12:53.635Z,82.96
2022-10-22T23:15:27.238Z,82.97
2022-10-22T23:18:00.431Z,83.05
2022-10-22T23:20:33.778Z,83.08
2022-10-22T23:23:07.547Z,83.11
2022-10-22T23:25:41.365Z,83.13
2022-10-22T23:28:15.853Z,83.17
2022-10-22T23:30:49.382Z,83.11
2022-10-22T23:33:22.750Z,83.28
2022-10-22T23:35:56.023Z,83.00
2022-10-22T23:38:29.777Z,82.85
2022-10-22T23:41:03.473Z,82.80
2022-10-22T23:43:38.057Z,82.85
2022-10-22T23:46:13.378Z,83.02
2022-10-22T23:48:47.302Z,82.92
2022-10-22T23:51:21.099Z,82.94
2022-10-22T23:54:00.379Z,82.94
2022-10-22T23:56:34.158Z,82.91
2022-10-22T23:59:08.467Z,82.86
